createdAt,value
2017-09-03T00:01:00.977Z,15.10
2017-09-03T00:03:28.512Z,15.10
2017-09-03T00:05:56.066Z,15.10
2017-09-03T00:08:23.643Z,15.10
2017-09-03T00:10:51.498Z,15.10
2017-09-03T00:13:19.046Z,15.10
2017-09-03T00:15:46.603Z,15.00
2017-09-03T00:18:14.175Z,15.00
2017-09-03T00:20:41.724Z,15.00
2017-09-03T00:23:09.660Z,14.90
2017-09-03T00:25:37.210Z,14.90
2017-09-03T00:28:04.751Z,14.90
2017-09-03T00:30:32.329Z,14.90
2017-09-03T00:32:59.945Z,14.90
2017-09-03T00:35:27.790Z,14.90
2017-09-03T00:37:55.314Z,14.90
2017-09-03T00:40:22.863Z,14.90
2017-09-03T00:42:50.436Z,14.90
2017-09-03T00:45:17.988Z,14.80
2017-09-03T00:47:45.955Z,14.90
2017-09-03T00:50:13.489Z,14.90
2017-09-03T00:52:41.012Z,14.90
2017-09-03T00:55:08.593Z,14.80
2017-09-03T00:57:36.240Z,14.80
2017-09-03T01:00:04.198Z,14.70
2017-09-03T01:02:31.743Z,14.70
2017-09-03T01:04:59.291Z,14.60
2017-09-03T01:07:26.867Z,14.60
2017-09-03T01:09:54.392Z,14.50
2017-09-03T01:12:22.214Z,14.40
2017-09-03T01:14:49.759Z,14.40
2017-09-03T01:17:17.280Z,14.40
2017-09-03T01:19:44.848Z,14.40
2017-09-03T01:22:12.397Z,14.30
2017-09-03T01:24:40.674Z,14.30
2017-09-03T01:27:08.242Z,14.30
2017-09-03T01:29:35.762Z,14.30
2017-09-03T01:32:03.368Z,14.30
2017-09-03T01:34:30.901Z,14.30
2017-09-03T01:36:58.752Z,14.30
2017-09-03T01:39:26.357Z,14.30
2017-09-03T01:41:53.924Z,14.30
2017-09-03T01:44:21.484Z,14.20
2017-09-03T01:46:49.025Z,14.20
2017-09-03T01:49:16.925Z,14.20
2017-09-03T01:51:44.482Z,14.20
2017-09-03T01:54:12.018Z,14.20
2017-09-03T01:56:39.587Z,14.10
2017-09-03T01:59:07.135Z,14.10
2017-09-03T02:01:34.951Z,14.10
2017-09-03T02:04:02.488Z,14.10
2017-09-03T02:06:30.035Z,14.10
2017-09-03T02:08:57.605Z,14.10
2017-09-03T02:11:25.130Z,14.10
2017-09-03T02:13:53.064Z,14.10
2017-09-03T02:16:20.590Z,14.10
2017-09-03T02:18:48.152Z,14.00
2017-09-03T02:21:15.729Z,14.00
2017-09-03T02:23:43.285Z,14.00
2017-09-03T02:26:11.131Z,14.00
2017-09-03T02:28:39.834Z,14.00
2017-09-03T02:31:07.374Z,13.90
2017-09-03T02:33:34.956Z,13.90
2017-09-03T02:36:02.474Z,13.90
2017-09-03T02:38:30.292Z,13.90
2017-09-03T02:40:57.827Z,13.90
2017-09-03T02:43:25.364Z,13.80
2017-09-03T02:45:52.957Z,13.80
2017-09-03T02:48:20.499Z,13.80
2017-09-03T02:50:48.403Z,13.80
2017-09-03T02:53:16.470Z,13.80
2017-09-03T02:55:44.007Z,13.80
2017-09-03T02:58:11.555Z,13.80
2017-09-03T03:00:39.110Z,13.80
2017-09-03T03:03:07.108Z,13.80
2017-09-03T03:05:34.662Z,13.80
2017-09-03T03:08:02.194Z,13.80
2017-09-03T03:10:29.759Z,13.80
2017-09-03T03:12:57.303Z,13.80
2017-09-03T03:15:25.324Z,13.80
2017-09-03T03:17:52.890Z,13.70
2017-09-03T03:20:20.439Z,13.70
2017-09-03T03:22:47.995Z,13.60
2017-09-03T03:25:15.524Z,13.60
2017-09-03T03:27:43.358Z,13.50
2017-09-03T03:30:10.910Z,13.50
2017-09-03T03:32:38.470Z,13.50
2017-09-03T03:35:06.028Z,13.40
2017-09-03T03:37:33.594Z,13.40
2017-09-03T03:40:01.461Z,13.40
2017-09-03T03:42:29.013Z,13.40
2017-09-03T03:44:56.558Z,13.40
2017-09-03T03:47:24.134Z,13.40
2017-09-03T03:49:51.719Z,13.40
2017-09-03T03:52:19.548Z,13.40
2017-09-03T03:54:47.115Z,13.40
2017-09-03T03:57:14.682Z,13.40
2017-09-03T03:59:42.258Z,13.40
2017-09-03T04:02:09.811Z,13.40
2017-09-03T04:04:37.679Z,13.40
2017-09-03T04:07:05.231Z,13.40
2017-09-03T04:09:32.771Z,13.40
2017-09-03T04:12:00.355Z,13.30
2017-09-03T04:14:27.885Z,13.30
2017-09-03T04:16:55.774Z,13.30
2017-09-03T04:19:23.349Z,13.30
2017-09-03T04:21:50.877Z,13.30
2017-09-03T04:24:18.443Z,13.30
2017-09-03T04:26:45.980Z,13.30
2017-09-03T04:29:13.904Z,13.30
2017-09-03T04:31:41.439Z,13.30
2017-09-03T04:34:08.978Z,13.30
2017-09-03T04:36:36.561Z,13.30
2017-09-03T04:39:04.153Z,13.30
2017-09-03T04:41:32.001Z,13.30
2017-09-03T04:43:59.555Z,13.30
2017-09-03T04:46:27.113Z,13.40
2017-09-03T04:48:54.667Z,13.40
2017-09-03T04:51:22.206Z,13.40
2017-09-03T04:53:50.075Z,13.40
2017-09-03T04:56:17.602Z,13.40
2017-09-03T04:58:45.158Z,13.40
2017-09-03T05:01:12.735Z,13.40
2017-09-03T05:03:40.270Z,13.40
2017-09-03T05:06:08.117Z,13.40
2017-09-03T05:08:35.683Z,13.50
2017-09-03T05:11:03.237Z,13.50
2017-09-03T05:13:30.783Z,13.50
2017-09-03T05:15:58.335Z,13.60
2017-09-03T05:18:26.182Z,13.60
2017-09-03T05:20:53.754Z,13.60
2017-09-03T05:23:21.304Z,13.60
2017-09-03T05:25:48.862Z,13.70
2017-09-03T05:28:16.386Z,13.70
2017-09-03T05:30:44.265Z,13.70
2017-09-03T05:33:11.789Z,13.80
2017-09-03T05:35:39.323Z,13.90
2017-09-03T05:38:06.900Z,14.00
2017-09-03T05:40:34.445Z,14.00
2017-09-03T05:43:02.357Z,14.10
2017-09-03T05:45:29.904Z,14.20
2017-09-03T05:47:57.457Z,14.20
2017-09-03T05:50:25.024Z,14.20
2017-09-03T05:52:52.573Z,14.30
2017-09-03T05:55:20.475Z,14.40
2017-09-03T05:57:48.021Z,14.50
2017-09-03T06:00:15.556Z,14.60
2017-09-03T06:02:43.126Z,14.70
2017-09-03T06:05:10.673Z,14.80
2017-09-03T06:07:38.496Z,14.80
2017-09-03T06:10:06.032Z,14.90
2017-09-03T06:12:33.598Z,14.90
2017-09-03T06:15:01.217Z,14.90
2017-09-03T06:17:28.775Z,15.00
2017-09-03T06:19:56.735Z,15.10
2017-09-03T06:22:24.274Z,15.10
2017-09-03T06:24:51.849Z,15.20
2017-09-03T06:27:19.410Z,15.20
2017-09-03T06:29:46.933Z,15.20
2017-09-03T06:32:14.777Z,15.30
2017-09-03T06:34:42.335Z,15.30
2017-09-03T06:37:09.872Z,15.30
2017-09-03T06:39:37.449Z,15.40
2017-09-03T06:42:04.996Z,15.40
2017-09-03T06:44:32.901Z,15.50
2017-09-03T06:47:00.460Z,15.60
2017-09-03T06:49:28.018Z,15.70
2017-09-03T06:51:55.599Z,15.80
2017-09-03T06:54:23.168Z,15.90
2017-09-03T06:56:51.135Z,15.90
2017-09-03T06:59:18.684Z,16.00
2017-09-03T07:01:46.254Z,16.10
2017-09-03T07:04:13.853Z,16.00
2017-09-03T07:06:41.387Z,16.00
2017-09-03T07:09:09.236Z,16.10
2017-09-03T07:11:36.760Z,16.10
2017-09-03T07:14:04.320Z,16.10
2017-09-03T07:16:31.905Z,16.10
2017-09-03T07:18:59.434Z,16.10
2017-09-03T07:21:27.440Z,16.20
2017-09-03T07:23:55.000Z,16.30
2017-09-03T07:26:22.548Z,16.30
2017-09-03T07:28:50.120Z,16.40
2017-09-03T07:31:17.668Z,16.50
2017-09-03T07:33:45.623Z,16.70
2017-09-03T07:36:13.157Z,16.80
2017-09-03T07:38:40.727Z,16.90
2017-09-03T07:41:08.297Z,17.10
2017-09-03T07:43:35.856Z,17.20
2017-09-03T07:46:03.774Z,17.30
2017-09-03T07:48:31.339Z,17.40
2017-09-03T07:50:58.883Z,17.50
2017-09-03T07:53:26.481Z,17.60
2017-09-03T07:55:54.028Z,17.70
2017-09-03T07:58:21.911Z,17.70
2017-09-03T08:00:49.480Z,17.70
2017-09-03T08:03:17.426Z,17.70
2017-09-03T08:05:45.011Z,17.80
2017-09-03T08:08:12.600Z,18.00
2017-09-03T08:10:40.430Z,18.10
2017-09-03T08:13:07.960Z,18.30
2017-09-03T08:15:35.510Z,18.30
2017-09-03T08:18:03.065Z,18.30
2017-09-03T08:20:30.652Z,18.40
2017-09-03T08:22:58.609Z,18.50
2017-09-03T08:25:26.140Z,18.60
2017-09-03T08:27:53.682Z,18.70
2017-09-03T08:30:21.288Z,18.60
2017-09-03T08:32:48.848Z,18.70
2017-09-03T08:35:16.729Z,18.90
2017-09-03T08:37:44.261Z,18.90
2017-09-03T08:40:11.889Z,19.00
2017-09-03T08:42:39.469Z,18.90
2017-09-03T08:45:07.021Z,18.90
2017-09-03T08:47:34.888Z,18.90
2017-09-03T08:50:02.455Z,18.80
2017-09-03T08:52:30.023Z,18.80
2017-09-03T08:54:57.633Z,18.80
2017-09-03T08:57:25.171Z,18.80
2017-09-03T08:59:53.177Z,18.80
2017-09-03T09:02:20.751Z,18.90
2017-09-03T09:04:48.392Z,18.90
2017-09-03T09:07:16.015Z,18.90
2017-09-03T09:09:43.566Z,19.00
2017-09-03T09:12:11.575Z,19.00
2017-09-03T09:14:39.154Z,19.10
2017-09-03T09:17:06.700Z,19.10
2017-09-03T09:19:34.282Z,19.00
2017-09-03T09:22:01.835Z,19.00
2017-09-03T09:24:29.666Z,19.00
2017-09-03T09:26:57.218Z,19.00
2017-09-03T09:29:24.776Z,19.00
2017-09-03T09:31:52.338Z,19.10
2017-09-03T09:34:19.868Z,19.20
2017-09-03T09:36:47.859Z,19.20
2017-09-03T09:39:15.425Z,19.30
2017-09-03T09:41:42.992Z,19.30
2017-09-03T09:44:10.609Z,19.40
2017-09-03T09:46:38.168Z,19.50
2017-09-03T09:49:05.991Z,19.60
2017-09-03T09:51:33.703Z,19.80
2017-09-03T09:54:01.266Z,19.90
2017-09-03T09:56:28.866Z,20.10
2017-09-03T09:58:56.422Z,20.10
2017-09-03T10:01:24.354Z,20.10
2017-09-03T10:03:51.931Z,20.30
2017-09-03T10:06:19.482Z,20.30
2017-09-03T10:08:47.085Z,20.30
2017-09-03T10:11:14.650Z,20.40
2017-09-03T10:13:42.544Z,20.50
2017-09-03T10:16:10.111Z,20.60
2017-09-03T10:18:37.650Z,20.50
2017-09-03T10:21:05.296Z,20.60
2017-09-03T10:23:32.863Z,20.60
2017-09-03T10:26:00.865Z,20.70
2017-09-03T10:28:28.439Z,20.70
2017-09-03T10:30:56.015Z,20.60
2017-09-03T10:33:23.604Z,20.70
2017-09-03T10:35:51.129Z,20.70
2017-09-03T10:38:18.835Z,20.70
2017-09-03T10:40:46.399Z,20.70
2017-09-03T10:43:14.217Z,20.90
2017-09-03T10:45:41.754Z,21.00
2017-09-03T10:48:10.045Z,20.90
2017-09-03T10:50:37.693Z,20.90
2017-09-03T10:53:05.260Z,20.90
2017-09-03T10:55:33.191Z,20.90
2017-09-03T10:58:01.598Z,21.00
2017-09-03T11:00:29.194Z,21.00
2017-09-03T11:02:56.753Z,21.00
2017-09-03T11:05:24.312Z,21.10
2017-09-03T11:07:52.232Z,21.10
2017-09-03T11:10:19.750Z,21.30
2017-09-03T11:12:47.332Z,21.20
2017-09-03T11:15:14.901Z,21.10
2017-09-03T11:17:42.462Z,21.20
2017-09-03T11:20:10.418Z,21.20
2017-09-03T11:22:37.979Z,21.40
2017-09-03T11:25:05.561Z,21.50
2017-09-03T11:27:33.160Z,21.50
2017-09-03T11:30:01.622Z,21.60
2017-09-03T11:32:29.486Z,21.80
2017-09-03T11:34:57.040Z,21.80
2017-09-03T11:37:24.625Z,21.80
2017-09-03T11:39:52.179Z,21.90
2017-09-03T11:42:19.789Z,22.10
2017-09-03T11:44:47.825Z,22.40
2017-09-03T11:47:16.159Z,22.60
2017-09-03T11:49:43.712Z,22.60
2017-09-03T11:52:11.258Z,22.60
2017-09-03T11:54:38.811Z,22.60
2017-09-03T11:57:06.752Z,22.90
2017-09-03T11:59:34.323Z,23.40
2017-09-03T12:02:01.892Z,23.80
2017-09-03T12:04:29.505Z,24.10
2017-09-03T12:06:57.058Z,24.40
2017-09-03T12:09:24.986Z,25.00
2017-09-03T12:11:52.541Z,25.50
2017-09-03T12:14:20.096Z,25.70
2017-09-03T12:16:47.711Z,25.70
2017-09-03T12:19:15.281Z,25.40
2017-09-03T12:21:43.228Z,25.30
2017-09-03T12:24:10.881Z,25.80
2017-09-03T12:26:38.418Z,26.20
2017-09-03T12:29:05.989Z,26.30
2017-09-03T12:31:33.580Z,26.50
2017-09-03T12:34:01.461Z,26.50
2017-09-03T12:36:29.008Z,26.60
2017-09-03T12:38:56.535Z,26.80
2017-09-03T12:41:24.136Z,27.00
2017-09-03T12:43:51.743Z,27.30
2017-09-03T12:46:19.597Z,27.40
2017-09-03T12:48:47.156Z,27.30
2017-09-03T12:51:15.479Z,26.70
2017-09-03T12:53:43.056Z,26.60
2017-09-03T12:56:10.623Z,26.70
2017-09-03T12:58:38.501Z,26.90
2017-09-03T13:01:06.055Z,27.10
2017-09-03T13:03:33.660Z,27.50
2017-09-03T13:06:04.760Z,27.60
2017-09-03T13:08:32.428Z,27.70
2017-09-03T13:11:00.424Z,27.60
2017-09-03T13:13:27.981Z,27.10
2017-09-03T13:15:55.544Z,26.80
2017-09-03T13:18:23.115Z,26.50
2017-09-03T13:20:50.645Z,26.50
2017-09-03T13:23:18.838Z,26.60
2017-09-03T13:25:46.419Z,26.50
2017-09-03T13:28:13.963Z,26.40
2017-09-03T13:30:42.356Z,26.00
2017-09-03T13:33:09.939Z,26.00
2017-09-03T13:35:37.765Z,25.90
2017-09-03T13:38:05.331Z,25.90
2017-09-03T13:40:32.877Z,25.80
2017-09-03T13:43:00.453Z,25.80
2017-09-03T13:45:27.995Z,25.90
2017-09-03T13:47:55.867Z,26.10
2017-09-03T13:50:23.423Z,26.30
2017-09-03T13:52:50.977Z,26.50
2017-09-03T13:55:18.598Z,26.60
2017-09-03T13:57:46.158Z,26.60
2017-09-03T14:00:14.001Z,26.50
2017-09-03T14:02:41.582Z,26.10
2017-09-03T14:05:09.138Z,25.70
2017-09-03T14:07:36.753Z,25.20
2017-09-03T14:10:04.311Z,24.70
2017-09-03T14:12:32.269Z,24.30
2017-09-03T14:14:59.786Z,24.00
2017-09-03T14:17:27.330Z,23.70
2017-09-03T14:19:54.910Z,23.50
2017-09-03T14:22:22.463Z,23.30
2017-09-03T14:24:50.398Z,23.20
2017-09-03T14:27:17.936Z,23.00
2017-09-03T14:29:45.496Z,22.90
2017-09-03T14:32:13.073Z,22.90
2017-09-03T14:34:41.328Z,22.90
2017-09-03T14:37:09.210Z,22.80
2017-09-03T14:39:36.755Z,22.70
2017-09-03T14:42:04.295Z,22.40
2017-09-03T14:44:31.861Z,22.10
2017-09-03T14:46:59.409Z,21.90
2017-09-03T14:49:27.309Z,21.70
2017-09-03T14:51:55.767Z,21.50
2017-09-03T14:54:23.320Z,21.20
2017-09-03T14:56:50.906Z,21.00
2017-09-03T14:59:18.454Z,20.90
2017-09-03T15:01:46.354Z,20.70
2017-09-03T15:04:13.976Z,20.50
2017-09-03T15:06:41.510Z,20.30
2017-09-03T15:09:09.101Z,20.10
2017-09-03T15:11:36.629Z,19.90
2017-09-03T15:14:04.552Z,19.80
2017-09-03T15:16:32.167Z,19.80
2017-09-03T15:18:59.768Z,19.80
2017-09-03T15:21:27.384Z,19.90
2017-09-03T15:23:54.947Z,19.70
2017-09-03T15:26:22.937Z,19.90
2017-09-03T15:28:50.523Z,19.90
2017-09-03T15:31:18.104Z,20.00
2017-09-03T15:33:45.684Z,20.00
2017-09-03T15:36:13.257Z,20.00
2017-09-03T15:38:41.185Z,20.00
2017-09-03T15:41:08.723Z,20.10
2017-09-03T15:43:37.121Z,20.00
2017-09-03T15:46:04.777Z,20.10
2017-09-03T15:48:32.382Z,20.10
2017-09-03T15:51:00.372Z,20.10
2017-09-03T15:53:27.991Z,20.10
2017-09-03T15:55:55.593Z,20.10
2017-09-03T15:58:23.210Z,20.10
2017-09-03T16:00:50.840Z,20.10
2017-09-03T16:03:18.749Z,20.20
2017-09-03T16:05:46.322Z,20.30
2017-09-03T16:08:13.888Z,20.40
2017-09-03T16:10:41.468Z,20.50
2017-09-03T16:13:09.073Z,20.60
2017-09-03T16:15:36.958Z,20.70
2017-09-03T16:18:04.521Z,20.80
2017-09-03T16:20:32.124Z,20.80
2017-09-03T16:22:59.695Z,20.80
2017-09-03T16:25:27.287Z,20.80
2017-09-03T16:27:55.199Z,20.80
2017-09-03T16:30:22.754Z,20.80
2017-09-03T16:32:50.288Z,20.80
2017-09-03T16:35:17.912Z,20.70
2017-09-03T16:37:45.459Z,20.60
2017-09-03T16:40:13.381Z,20.60
2017-09-03T16:42:40.926Z,20.60
2017-09-03T16:45:08.496Z,20.60
2017-09-03T16:47:36.065Z,20.60
2017-09-03T16:50:03.673Z,20.50
2017-09-03T16:52:31.517Z,20.40
2017-09-03T16:54:59.059Z,20.20
2017-09-03T16:57:26.578Z,20.10
2017-09-03T16:59:54.166Z,20.00
2017-09-03T17:02:21.725Z,19.90
2017-09-03T17:04:49.677Z,19.80
2017-09-03T17:07:17.232Z,19.80
2017-09-03T17:09:44.771Z,19.70
2017-09-03T17:12:12.330Z,19.60
2017-09-03T17:14:39.858Z,19.60
2017-09-03T17:17:07.679Z,19.50
2017-09-03T17:19:35.223Z,19.40
2017-09-03T17:22:02.771Z,19.30
2017-09-03T17:24:30.951Z,19.20
2017-09-03T17:26:58.519Z,19.10
2017-09-03T17:29:26.455Z,19.00
2017-09-03T17:31:56.970Z,18.90
2017-09-03T17:34:36.521Z,18.80
2017-09-03T17:37:04.699Z,18.70
2017-09-03T17:39:35.275Z,18.50
2017-09-03T17:42:03.880Z,18.40
2017-09-03T17:44:31.431Z,18.30
2017-09-03T17:46:59.009Z,18.20
2017-09-03T17:49:26.550Z,18.10
2017-09-03T17:51:54.449Z,18.00
2017-09-03T17:54:22.005Z,17.90
2017-09-03T17:56:49.544Z,17.70
2017-09-03T17:59:17.143Z,17.60
2017-09-03T18:01:44.673Z,17.50
2017-09-03T18:04:12.559Z,17.40
2017-09-03T18:06:41.728Z,17.30
2017-09-03T18:09:09.256Z,17.20
2017-09-03T18:11:36.817Z,17.10
2017-09-03T18:14:05.117Z,17.00
2017-09-03T18:16:33.021Z,16.90
2017-09-03T18:19:01.514Z,16.90
2017-09-03T18:21:29.045Z,16.80
2017-09-03T18:23:56.724Z,16.70
2017-09-03T18:26:24.315Z,16.70
2017-09-03T18:28:52.794Z,16.60
2017-09-03T18:31:21.271Z,16.50
2017-09-03T18:33:48.817Z,16.50
2017-09-03T18:36:20.304Z,16.40
2017-09-03T18:38:48.632Z,16.40
2017-09-03T18:41:16.535Z,16.30
2017-09-03T18:43:44.077Z,16.30
2017-09-03T18:46:27.038Z,16.30
2017-09-03T18:48:54.708Z,16.20
2017-09-03T18:51:25.230Z,16.20
2017-09-03T18:53:59.537Z,16.20
2017-09-03T18:56:30.803Z,16.20
2017-09-03T18:59:01.227Z,16.20
2017-09-03T19:01:28.797Z,16.20
2017-09-03T19:03:59.841Z,16.20
2017-09-03T19:06:27.422Z,16.20
2017-09-03T19:08:54.993Z,16.30
2017-09-03T19:11:23.641Z,16.20
2017-09-03T19:13:51.195Z,16.20
2017-09-03T19:16:19.552Z,16.10
2017-09-03T19:18:53.496Z,16.10
2017-09-03T19:21:21.046Z,16.10
2017-09-03T19:23:49.669Z,16.00
2017-09-03T19:26:17.257Z,16.00
2017-09-03T19:28:44.892Z,15.90
2017-09-03T19:31:12.458Z,15.80
2017-09-03T19:33:40.099Z,15.80
2017-09-03T19:36:08.007Z,15.80
2017-09-03T19:38:36.163Z,15.70
2017-09-03T19:41:03.864Z,15.70
2017-09-03T19:43:31.544Z,15.60
2017-09-03T19:45:59.415Z,15.60
2017-09-03T19:48:27.295Z,15.50
2017-09-03T19:50:54.855Z,15.40
2017-09-03T19:53:22.468Z,15.40
2017-09-03T19:55:50.103Z,15.40
2017-09-03T19:58:17.647Z,15.30
2017-09-03T20:00:45.598Z,15.30
2017-09-03T20:03:13.187Z,15.20
2017-09-03T20:05:40.765Z,15.10
2017-09-03T20:08:08.352Z,15.10
2017-09-03T20:10:35.941Z,15.10
2017-09-03T20:13:03.899Z,15.00
2017-09-03T20:15:31.478Z,15.00
2017-09-03T20:17:59.026Z,14.90
2017-09-03T20:20:26.622Z,14.90
2017-09-03T20:22:55.237Z,14.90
2017-09-03T20:25:23.208Z,14.90
2017-09-03T20:27:50.816Z,14.90
2017-09-03T20:30:19.156Z,14.90
2017-09-03T20:32:47.334Z,14.90
2017-09-03T20:35:15.282Z,14.90
2017-09-03T20:37:43.226Z,14.90
2017-09-03T20:40:10.817Z,14.90
2017-09-03T20:42:38.467Z,14.90
2017-09-03T20:45:06.059Z,14.90
2017-09-03T20:47:33.608Z,14.90
2017-09-03T20:50:01.463Z,14.90
2017-09-03T20:52:29.037Z,14.90
2017-09-03T20:54:56.560Z,14.90
2017-09-03T20:57:24.158Z,14.90
2017-09-03T20:59:51.715Z,15.00
2017-09-03T21:02:19.561Z,15.00
2017-09-03T21:04:47.117Z,15.00
2017-09-03T21:07:14.671Z,15.10
2017-09-03T21:09:42.269Z,15.10
2017-09-03T21:12:09.910Z,15.10
2017-09-03T21:14:37.793Z,15.20
2017-09-03T21:17:05.353Z,15.20
2017-09-03T21:19:32.890Z,15.20
2017-09-03T21:22:00.497Z,15.20
2017-09-03T21:24:28.102Z,15.30
2017-09-03T21:26:56.006Z,15.30
2017-09-03T21:29:23.565Z,15.30
2017-09-03T21:31:51.103Z,15.30
2017-09-03T21:34:18.696Z,15.30
2017-09-03T21:36:46.213Z,15.30
2017-09-03T21:39:14.133Z,15.30
2017-09-03T21:41:41.670Z,15.30
2017-09-03T21:44:09.217Z,15.30
2017-09-03T21:46:36.792Z,15.20
2017-09-03T21:49:04.355Z,15.20
2017-09-03T21:51:32.192Z,15.20
2017-09-03T21:53:59.739Z,15.10
2017-09-03T21:56:27.292Z,15.10
2017-09-03T21:58:54.942Z,15.00
2017-09-03T22:01:22.478Z,14.90
2017-09-03T22:03:50.361Z,14.90
2017-09-03T22:06:17.914Z,14.80
2017-09-03T22:08:45.461Z,14.70
2017-09-03T22:11:13.017Z,14.70
2017-09-03T22:13:40.577Z,14.60
2017-09-03T22:16:08.486Z,14.60
2017-09-03T22:18:36.040Z,14.60
2017-09-03T22:21:03.600Z,14.50
2017-09-03T22:23:31.207Z,14.50
2017-09-03T22:25:58.736Z,14.50
2017-09-03T22:28:26.697Z,14.40
2017-09-03T22:30:54.207Z,14.40
2017-09-03T22:33:21.750Z,14.40
2017-09-03T22:35:49.342Z,14.40
2017-09-03T22:38:16.898Z,14.30
2017-09-03T22:40:44.764Z,14.30
2017-09-03T22:43:12.310Z,14.20
2017-09-03T22:45:39.861Z,14.20
2017-09-03T22:48:07.409Z,14.20
2017-09-03T22:50:34.923Z,14.10
2017-09-03T22:53:02.785Z,14.10
2017-09-03T22:55:30.350Z,14.10
2017-09-03T22:57:57.896Z,14.00
2017-09-03T23:00:25.443Z,14.00
2017-09-03T23:02:52.968Z,13.90
2017-09-03T23:05:20.546Z,14.00
2017-09-03T23:07:48.066Z,13.90
2017-09-03T23:10:15.997Z,13.80
2017-09-03T23:12:43.559Z,13.80
2017-09-03T23:15:11.097Z,13.80
2017-09-03T23:17:38.658Z,13.70
2017-09-03T23:20:06.190Z,13.70
2017-09-03T23:22:34.849Z,13.60
2017-09-03T23:25:02.595Z,13.60
2017-09-03T23:27:30.114Z,13.60
2017-09-03T23:29:57.662Z,13.50
2017-09-03T23:32:25.203Z,13.50
2017-09-03T23:34:53.019Z,13.50
2017-09-03T23:37:20.544Z,13.50
2017-09-03T23:39:48.077Z,13.40
2017-09-03T23:42:15.617Z,13.40
2017-09-03T23:44:43.144Z,13.40
2017-09-03T23:47:11.796Z,13.30
2017-09-03T23:49:39.345Z,13.30
2017-09-03T23:52:06.872Z,13.30
2017-09-03T23:54:34.439Z,13.30
2017-09-03T23:57:01.957Z,13.30
2017-09-03T23:59:29.890Z,13.20
